createdAt,value
2022-11-16T00:00:37.593Z,99786.50
2022-11-16T00:04:32.178Z,99789.91
2022-11-16T00:16:09.072Z,99784.94
2022-11-16T00:24:46.754Z,99784.09
2022-11-16T00:42:03.911Z,99764.16
2022-11-16T01:18:03.473Z,99779.16
2022-11-16T01:21:51.073Z,99782.56
2022-11-16T02:10:04.955Z,99794.47
2022-11-16T02:14:18.314Z,99784.94
2022-11-16T02:34:26.679Z,99791.06
2022-11-16T02:47:54.239Z,99795.25
2022-11-16T03:24:20.408Z,99814.50
2022-11-16T03:30:25.453Z,99810.44
2022-11-16T03:33:32.510Z,99810.66
2022-11-16T07:09:00.441Z,99921.28
2022-11-16T07:21:53.843Z,99917.06
2022-11-16T07:25:45.644Z,99915.63
2022-11-16T07:37:58.721Z,99917.75
2022-11-16T07:52:49.631Z,99924.00
2022-11-16T07:56:30.591Z,99922.81
2022-11-16T07:59:33.191Z,99926.59
2022-11-16T08:02:21.635Z,99915.16
2022-11-16T08:05:30.155Z,99920.50
2022-11-16T08:08:03.475Z,99910.47
2022-11-16T08:10:54.033Z,99913.34
2022-11-16T08:13:28.473Z,99918.91
2022-11-16T08:16:10.512Z,99914.97
2022-11-16T08:18:45.313Z,99920.41
2022-11-16T08:21:22.836Z,99915.50
2022-11-16T08:24:01.474Z,99920.81
2022-11-16T08:26:39.976Z,99920.25
2022-11-16T08:29:19.196Z,99914.63
2022-11-16T08:32:29.758Z,99916.34
2022-11-16T08:35:04.659Z,99919.22
2022-11-16T08:37:37.827Z,99921.56
2022-11-16T08:40:18.313Z,99916.59
2022-11-16T08:43:01.084Z,99927.28
2022-11-16T08:45:41.235Z,99918.66
2022-11-16T08:48:13.592Z,99919.31
2022-11-16T08:51:15.418Z,99914.13
2022-11-16T08:53:54.634Z,99909.50
2022-11-16T08:56:32.487Z,99921.38
2022-11-16T08:59:05.236Z,99913.94
2022-11-16T09:01:38.639Z,99914.09
2022-11-16T09:04:13.031Z,99916.91
2022-11-16T09:06:50.735Z,99913.06
2022-11-16T09:09:23.922Z,99913.97
2022-11-16T09:12:05.913Z,99914.56
2022-11-16T09:14:39.950Z,99919.91
2022-11-16T09:17:22.962Z,99921.50
2022-11-16T09:19:55.999Z,99916.41
2022-11-16T09:22:24.779Z,99914.03
2022-11-16T09:24:55.631Z,99915.84
2022-11-16T09:27:25.681Z,99920.47
2022-11-16T09:29:56.512Z,99917.09
2022-11-16T09:32:25.766Z,99915.50
2022-11-16T09:34:55.112Z,99922.06
2022-11-16T09:37:26.721Z,99920.69
2022-11-16T09:39:55.948Z,99923.75
2022-11-16T09:42:41.528Z,99927.22
2022-11-16T09:45:28.247Z,99923.94
2022-11-16T09:48:03.450Z,99928.47
2022-11-16T09:56:22.343Z,99927.31
2022-11-16T10:01:42.205Z,99920.41
2022-11-16T10:04:23.682Z,99921.19
2022-11-16T10:09:35.809Z,99925.91
2022-11-16T10:18:23.986Z,99919.00
2022-11-16T10:29:14.852Z,99922.94
2022-11-16T10:32:22.438Z,99915.16
2022-11-16T10:34:56.720Z,99916.09
2022-11-16T10:37:31.296Z,99918.84
2022-11-16T10:39:59.531Z,99917.47
2022-11-16T10:42:36.909Z,99923.38
2022-11-16T10:48:16.270Z,99918.91
2022-11-16T10:50:48.477Z,99929.69
2022-11-16T10:53:26.242Z,99927.03
2022-11-16T10:56:19.793Z,99929.13
2022-11-16T11:01:37.801Z,99922.50
2022-11-16T11:04:25.278Z,99923.78
2022-11-16T11:09:39.019Z,99918.16
2022-11-16T11:12:38.766Z,99921.03
2022-11-16T11:15:27.553Z,99919.09
2022-11-16T11:21:19.387Z,99921.44
2022-11-16T11:23:52.335Z,99924.41
2022-11-16T11:26:39.372Z,99927.94
2022-11-16T11:29:31.192Z,99924.53
2022-11-16T11:32:06.082Z,99923.59
2022-11-16T11:34:47.921Z,99928.34
2022-11-16T11:37:21.925Z,99927.53
2022-11-16T11:40:05.270Z,99925.38
2022-11-16T11:42:33.438Z,99924.56
2022-11-16T11:45:09.492Z,99931.88
2022-11-16T11:48:00.915Z,99938.34
2022-11-16T11:50:53.692Z,99928.84
2022-11-16T11:56:21.315Z,99937.19
2022-11-16T11:58:50.440Z,99930.53
2022-11-16T12:10:31.886Z,99937.47
2022-11-16T12:26:57.113Z,99940.75
2022-11-16T12:29:27.724Z,99946.09
2022-11-16T12:37:21.605Z,99940.31
2022-11-16T13:05:21.175Z,99940.44
2022-11-16T13:07:56.327Z,99939.84
2022-11-16T13:10:28.655Z,99937.13
2022-11-16T13:15:54.352Z,99938.72
2022-11-16T13:18:25.003Z,99927.97
2022-11-16T13:26:24.847Z,99940.31
2022-11-16T13:31:39.313Z,99939.31
2022-11-16T13:34:14.983Z,99939.31
2022-11-16T13:36:45.647Z,99942.34
2022-11-16T13:39:22.023Z,99938.50
2022-11-16T13:42:06.119Z,99941.69
2022-11-16T13:44:35.249Z,99938.63
2022-11-16T13:47:07.561Z,99944.84
2022-11-16T13:49:42.198Z,99935.56
2022-11-16T13:52:48.259Z,99945.66
2022-11-16T13:55:15.883Z,99945.66
2022-11-16T13:57:54.551Z,99940.09
2022-11-16T14:00:39.553Z,99941.34
2022-11-16T14:03:31.823Z,99948.72
2022-11-16T14:06:00.434Z,99947.56
2022-11-16T14:11:25.754Z,99947.78
2022-11-16T14:13:56.812Z,99954.84
2022-11-16T14:19:06.285Z,99952.53
2022-11-16T14:32:54.579Z,99961.97
2022-11-16T14:35:47.566Z,99959.53
2022-11-16T14:38:31.286Z,99962.25
2022-11-16T14:41:03.157Z,99964.53
2022-11-16T14:43:41.689Z,99965.84
2022-11-16T14:49:16.167Z,99968.88
2022-11-16T14:51:49.675Z,99963.44
2022-11-16T14:57:01.850Z,99966.97
2022-11-16T14:59:32.231Z,99967.25
2022-11-16T15:02:13.522Z,99963.69
2022-11-16T15:04:45.174Z,99966.88
2022-11-16T15:07:24.105Z,99963.97
2022-11-16T15:10:00.130Z,99972.59
2022-11-16T15:12:42.631Z,99975.00
2022-11-16T15:18:07.612Z,99970.13
2022-11-16T15:20:42.531Z,99963.16
2022-11-16T15:23:15.561Z,99972.47
2022-11-16T15:25:47.791Z,99964.66
2022-11-16T15:28:22.845Z,99973.47
2022-11-16T15:31:19.711Z,99968.88
2022-11-16T15:34:09.656Z,99977.78
2022-11-16T15:36:41.938Z,99976.41
2022-11-16T15:39:19.842Z,99972.44
2022-11-16T15:42:02.189Z,99973.56
2022-11-16T15:44:37.403Z,99977.38
2022-11-16T15:47:13.396Z,99971.50
2022-11-16T15:49:54.352Z,99973.75
2022-11-16T15:52:44.430Z,99965.69
2022-11-16T15:58:15.446Z,99971.97
2022-11-16T16:00:53.107Z,99971.56
2022-11-16T16:03:38.921Z,99972.22
2022-11-16T16:06:57.657Z,99971.75
2022-11-16T16:09:55.633Z,99981.00
2022-11-16T16:12:51.917Z,99978.81
2022-11-16T16:18:50.286Z,99975.97
2022-11-16T16:22:04.073Z,99972.53
2022-11-16T16:27:47.013Z,99971.72
2022-11-16T16:31:00.276Z,99965.78
2022-11-16T16:33:59.921Z,99968.44
2022-11-16T16:36:37.364Z,99959.28
2022-11-16T16:39:38.521Z,99959.44
2022-11-16T17:18:42.874Z,99939.59
2022-11-16T17:29:22.092Z,99939.38
2022-11-16T17:32:40.335Z,99949.28
2022-11-16T17:36:23.878Z,99944.34
2022-11-16T17:53:55.925Z,99933.47
2022-11-16T18:04:51.723Z,99943.44
2022-11-16T18:08:38.519Z,99936.66
2022-11-16T18:11:46.487Z,99941.03
2022-11-16T18:15:29.525Z,99941.44
2022-11-16T18:18:59.024Z,99938.72
2022-11-16T18:32:08.702Z,99942.56
2022-11-16T18:36:09.944Z,99947.78
2022-11-16T18:48:07.651Z,99933.94
